sensor_id;sensor_type;location;lat;lon;timestamp;pressure;altitude;pressure_sealevel;temperature;humidity
706;BME280;21234;48.690;9.016;2023-01-23T00:01:02;97174.97;;;-0.77;100.00
706;BME280;21234;48.690;9.016;2023-01-23T00:03:29;97172.63;;;-0.80;100.00
706;BME280;21234;48.690;9.016;2023-01-23T00:05:56;97174.63;;;-0.82;100.00
706;BME280;21234;48.690;9.016;2023-01-23T00:08:23;97164.84;;;-0.73;100.00
706;BME280;21234;48.690;9.016;2023-01-23T00:10:50;97169.97;;;-0.80;100.00
706;BME280;21234;48.690;9.016;2023-01-23T00:13:18;97170.47;;;-0.76;100.00
706;BME280;21234;48.690;9.016;2023-01-23T00:15:45;97165.81;;;-0.74;100.00
706;BME280;21234;48.690;9.016;2023-01-23T00:18:12;97169.31;;;-0.74;100.00
706;BME280;21234;48.690;9.016;2023-01-23T00:20:40;97173.31;;;-0.78;100.00
706;BME280;21234;48.690;9.016;2023-01-23T00:23:07;97176.44;;;-0.82;100.00
706;BME280;21234;48.690;9.016;2023-01-23T00:25:34;97167.44;;;-0.81;100.00
706;BME280;21234;48.690;9.016;2023-01-23T00:28:02;97167.28;;;-0.80;100.00
706;BME280;21234;48.690;9.016;2023-01-23T00:30:30;97165.75;;;-0.82;100.00
706;BME280;21234;48.690;9.016;2023-01-23T00:32:57;97168.97;;;-0.79;100.00
706;BME280;21234;48.690;9.016;2023-01-23T00:35:23;97166.59;;;-0.82;100.00
706;BME280;21234;48.690;9.016;2023-01-23T00:37:50;97164.78;;;-0.81;100.00
706;BME280;21234;48.690;9.016;2023-01-23T00:40:17;97163.25;;;-0.84;100.00
706;BME280;21234;48.690;9.016;2023-01-23T00:42:44;97164.41;;;-0.86;100.00
706;BME280;21234;48.690;9.016;2023-01-23T00:45:10;97167.59;;;-0.83;100.00
706;BME280;21234;48.690;9.016;2023-01-23T00:47:39;97162.25;;;-0.83;100.00
706;BME280;21234;48.690;9.016;2023-01-23T00:50:06;97175.09;;;-0.86;100.00
706;BME280;21234;48.690;9.016;2023-01-23T00:52:33;97174.41;;;-0.88;100.00
706;BME280;21234;48.690;9.016;2023-01-23T00:54:59;97166.22;;;-0.87;100.00
706;BME280;21234;48.690;9.016;2023-01-23T00:57:26;97165.69;;;-0.98;100.00
706;BME280;21234;48.690;9.016;2023-01-23T00:59:53;97170.34;;;-1.00;100.00
706;BME280;21234;48.690;9.016;2023-01-23T01:02:20;97166.97;;;-1.03;100.00
706;BME280;21234;48.690;9.016;2023-01-23T01:04:48;97163.84;;;-0.98;100.00
706;BME280;21234;48.690;9.016;2023-01-23T01:07:14;97170.81;;;-0.97;100.00
706;BME280;21234;48.690;9.016;2023-01-23T01:09:41;97176.16;;;-0.97;100.00
706;BME280;21234;48.690;9.016;2023-01-23T01:12:08;97182.34;;;-0.96;100.00
706;BME280;21234;48.690;9.016;2023-01-23T01:14:34;97185.06;;;-0.88;100.00
706;BME280;21234;48.690;9.016;2023-01-23T01:17:01;97179.59;;;-0.87;100.00
706;BME280;21234;48.690;9.016;2023-01-23T01:19:28;97191.78;;;-0.84;100.00
706;BME280;21234;48.690;9.016;2023-01-23T01:21:56;97196.03;;;-0.74;100.00
706;BME280;21234;48.690;9.016;2023-01-23T01:24:23;97193.53;;;-0.75;100.00
706;BME280;21234;48.690;9.016;2023-01-23T01:26:51;97192.69;;;-0.76;100.00
706;BME280;21234;48.690;9.016;2023-01-23T01:29:17;97199.84;;;-0.76;100.00
706;BME280;21234;48.690;9.016;2023-01-23T01:31:44;97201.16;;;-0.80;100.00
706;BME280;21234;48.690;9.016;2023-01-23T01:34:11;97204.81;;;-0.81;100.00
706;BME280;21234;48.690;9.016;2023-01-23T01:36:38;97211.16;;;-0.82;100.00
706;BME280;21234;48.690;9.016;2023-01-23T01:39:06;97212.31;;;-0.85;100.00
706;BME280;21234;48.690;9.016;2023-01-23T01:41:33;97207.66;;;-0.83;100.00
706;BME280;21234;48.690;9.016;2023-01-23T01:44:00;97205.44;;;-0.87;100.00
706;BME280;21234;48.690;9.016;2023-01-23T01:46:28;97207.66;;;-0.83;100.00
706;BME280;21234;48.690;9.016;2023-01-23T01:49:04;97205.50;;;-0.79;100.00
706;BME280;21234;48.690;9.016;2023-01-23T01:51:34;97203.38;;;-0.93;100.00
706;BME280;21234;48.690;9.016;2023-01-23T01:54:08;97206.06;;;-0.93;100.00
706;BME280;21234;48.690;9.016;2023-01-23T01:56:39;97211.09;;;-0.90;100.00
706;BME280;21234;48.690;9.016;2023-01-23T01:59:08;97215.28;;;-0.88;100.00
706;BME280;21234;48.690;9.016;2023-01-23T02:01:36;97217.63;;;-0.85;100.00
706;BME280;21234;48.690;9.016;2023-01-23T02:04:04;97213.66;;;-0.81;100.00
706;BME280;21234;48.690;9.016;2023-01-23T02:06:31;97219.31;;;-0.84;100.00
706;BME280;21234;48.690;9.016;2023-01-23T02:09:02;97219.31;;;-0.84;100.00
706;BME280;21234;48.690;9.016;2023-01-23T02:11:31;97226.19;;;-0.81;100.00
706;BME280;21234;48.690;9.016;2023-01-23T02:13:58;97225.56;;;-0.75;100.00
706;BME280;21234;48.690;9.016;2023-01-23T02:16:26;97222.72;;;-0.99;100.00
706;BME280;21234;48.690;9.016;2023-01-23T02:18:57;97218.38;;;-1.00;100.00
706;BME280;21234;48.690;9.016;2023-01-23T02:21:26;97210.06;;;-0.97;100.00
706;BME280;21234;48.690;9.016;2023-01-23T02:24:03;97210.41;;;-0.92;100.00
706;BME280;21234;48.690;9.016;2023-01-23T02:26:37;97209.09;;;-0.88;100.00
706;BME280;21234;48.690;9.016;2023-01-23T02:29:05;97218.41;;;-0.92;100.00
706;BME280;21234;48.690;9.016;2023-01-23T02:31:32;97214.06;;;-0.93;100.00
706;BME280;21234;48.690;9.016;2023-01-23T02:33:59;97215.59;;;-0.91;100.00
706;BME280;21234;48.690;9.016;2023-01-23T02:36:28;97210.41;;;-0.92;100.00
706;BME280;21234;48.690;9.016;2023-01-23T02:39:00;97211.00;;;-0.81;100.00
706;BME280;21234;48.690;9.016;2023-01-23T02:41:30;97203.50;;;-0.77;100.00
706;BME280;21234;48.690;9.016;2023-01-23T02:44:01;97202.63;;;-0.86;100.00
706;BME280;21234;48.690;9.016;2023-01-23T02:46:30;97201.00;;;-0.79;100.00
706;BME280;21234;48.690;9.016;2023-01-23T02:48:57;97211.69;;;-0.79;100.00
706;BME280;21234;48.690;9.016;2023-01-23T02:51:23;97198.78;;;-0.83;100.00
706;BME280;21234;48.690;9.016;2023-01-23T02:53:50;97206.66;;;-0.82;100.00
706;BME280;21234;48.690;9.016;2023-01-23T02:56:17;97208.25;;;-0.89;100.00
706;BME280;21234;48.690;9.016;2023-01-23T02:58:44;97205.66;;;-0.81;100.00
706;BME280;21234;48.690;9.016;2023-01-23T03:01:30;97201.16;;;-0.80;100.00
706;BME280;21234;48.690;9.016;2023-01-23T03:04:00;97216.88;;;-0.77;100.00
706;BME280;21234;48.690;9.016;2023-01-23T03:06:30;97220.38;;;-0.77;100.00
706;BME280;21234;48.690;9.016;2023-01-23T03:09:02;97216.97;;;-0.87;100.00
706;BME280;21234;48.690;9.016;2023-01-23T03:11:30;97216.81;;;-0.85;100.00
706;BME280;21234;48.690;9.016;2023-01-23T03:13:57;97222.81;;;-0.83;100.00
706;BME280;21234;48.690;9.016;2023-01-23T03:16:24;97216.13;;;-0.87;100.00
706;BME280;21234;48.690;9.016;2023-01-23T03:18:53;97218.31;;;-0.83;100.00
706;BME280;21234;48.690;9.016;2023-01-23T03:21:21;97222.00;;;-0.84;100.00
706;BME280;21234;48.690;9.016;2023-01-23T03:23:48;97220.38;;;-0.77;100.00
706;BME280;21234;48.690;9.016;2023-01-23T03:26:15;97218.53;;;-0.76;100.00
706;BME280;21234;48.690;9.016;2023-01-23T03:28:42;97221.22;;;-0.76;100.00
706;BME280;21234;48.690;9.016;2023-01-23T03:31:26;97214.34;;;-0.79;100.00
706;BME280;21234;48.690;9.016;2023-01-23T03:33:54;97209.06;;;-0.71;100.00
706;BME280;21234;48.690;9.016;2023-01-23T03:36:21;97210.53;;;-0.76;100.00
706;BME280;21234;48.690;9.016;2023-01-23T03:38:47;97212.31;;;-0.85;100.00
706;BME280;21234;48.690;9.016;2023-01-23T03:41:31;97206.50;;;-0.80;100.00
706;BME280;21234;48.690;9.016;2023-01-23T03:43:58;97202.31;;;-0.83;100.00
706;BME280;21234;48.690;9.016;2023-01-23T03:46:24;97195.75;;;-0.88;100.00
706;BME280;21234;48.690;9.016;2023-01-23T03:48:52;97206.91;;;-0.93;100.00
706;BME280;21234;48.690;9.016;2023-01-23T03:51:20;97208.31;;;-1.07;100.00
706;BME280;21234;48.690;9.016;2023-01-23T03:53:46;97211.09;;;-0.90;100.00
706;BME280;21234;48.690;9.016;2023-01-23T03:56:13;97210.94;;;-0.89;100.00
706;BME280;21234;48.690;9.016;2023-01-23T03:58:40;97208.63;;;-0.84;100.00
706;BME280;21234;48.690;9.016;2023-01-23T04:01:07;97205.97;;;-0.84;100.00
706;BME280;21234;48.690;9.016;2023-01-23T04:03:34;97209.09;;;-0.88;100.00
706;BME280;21234;48.690;9.016;2023-01-23T04:06:01;97208.94;;;-0.87;100.00
706;BME280;21234;48.690;9.016;2023-01-23T04:08:29;97208.78;;;-0.85;100.00
706;BME280;21234;48.690;9.016;2023-01-23T04:11:03;97216.28;;;-0.89;100.00
706;BME280;21234;48.690;9.016;2023-01-23T04:13:30;97217.47;;;-0.83;100.00
706;BME280;21234;48.690;9.016;2023-01-23T04:15:58;97213.97;;;-0.84;100.00
706;BME280;21234;48.690;9.016;2023-01-23T04:18:24;97220.31;;;-0.85;100.00
706;BME280;21234;48.690;9.016;2023-01-23T04:20:51;97223.13;;;-0.86;100.00
706;BME280;21234;48.690;9.016;2023-01-23T04:23:18;97219.47;;;-0.85;100.00
706;BME280;21234;48.690;9.016;2023-01-23T04:25:46;97229.31;;;-0.86;100.00
706;BME280;21234;48.690;9.016;2023-01-23T04:28:13;97228.84;;;-0.81;100.00
706;BME280;21234;48.690;9.016;2023-01-23T04:30:40;97238.38;;;-0.79;100.00
706;BME280;21234;48.690;9.016;2023-01-23T04:33:07;97235.63;;;-0.87;100.00
706;BME280;21234;48.690;9.016;2023-01-23T04:35:34;97237.69;;;-0.81;100.00
706;BME280;21234;48.690;9.016;2023-01-23T04:38:00;97241.34;;;-0.82;100.00
706;BME280;21234;48.690;9.016;2023-01-23T04:40:27;97243.19;;;-0.82;100.00
706;BME280;21234;48.690;9.016;2023-01-23T04:42:55;97241.72;;;-0.77;100.00
706;BME280;21234;48.690;9.016;2023-01-23T04:45:22;97240.06;;;-0.78;100.00
706;BME280;21234;48.690;9.016;2023-01-23T04:47:49;97241.81;;;-0.86;100.00
706;BME280;21234;48.690;9.016;2023-01-23T04:50:15;97245.31;;;-0.86;100.00
706;BME280;21234;48.690;9.016;2023-01-23T04:52:42;97246.00;;;-0.84;100.00
706;BME280;21234;48.690;9.016;2023-01-23T04:55:09;97249.38;;;-0.82;100.00
706;BME280;21234;48.690;9.016;2023-01-23T04:57:42;97241.34;;;-0.82;100.00
706;BME280;21234;48.690;9.016;2023-01-23T05:00:11;97249.00;;;-0.87;100.00
706;BME280;21234;48.690;9.016;2023-01-23T05:02:38;97253.34;;;-0.86;100.00
706;BME280;21234;48.690;9.016;2023-01-23T05:05:06;97250.13;;;-0.89;100.00
706;BME280;21234;48.690;9.016;2023-01-23T05:07:33;97244.25;;;-0.93;100.00
706;BME280;21234;48.690;9.016;2023-01-23T05:10:00;97256.00;;;-0.86;100.00
706;BME280;21234;48.690;9.016;2023-01-23T05:12:26;97250.97;;;-0.89;100.00
706;BME280;21234;48.690;9.016;2023-01-23T05:14:53;97259.97;;;-0.90;100.00
706;BME280;21234;48.690;9.016;2023-01-23T05:17:21;97249.06;;;-0.96;100.00
706;BME280;21234;48.690;9.016;2023-01-23T05:19:48;97255.69;;;-0.83;100.00
706;BME280;21234;48.690;9.016;2023-01-23T05:22:15;97251.41;;;-0.76;100.00
706;BME280;21234;48.690;9.016;2023-01-23T05:24:42;97255.47;;;-0.72;100.00
706;BME280;21234;48.690;9.016;2023-01-23T05:27:08;97255.16;;;-0.69;100.00
706;BME280;21234;48.690;9.016;2023-01-23T05:29:35;97261.19;;;-0.66;100.00
706;BME280;21234;48.690;9.016;2023-01-23T05:32:02;97261.47;;;-0.70;100.00
706;BME280;21234;48.690;9.016;2023-01-23T05:34:30;97263.69;;;-0.65;100.00
706;BME280;21234;48.690;9.016;2023-01-23T05:36:57;97254.00;;;-0.66;100.00
706;BME280;21234;48.690;9.016;2023-01-23T05:39:24;97250.81;;;-0.70;100.00
706;BME280;21234;48.690;9.016;2023-01-23T05:41:51;97259.97;;;-0.72;100.00
706;BME280;21234;48.690;9.016;2023-01-23T05:44:17;97261.47;;;-0.70;100.00
706;BME280;21234;48.690;9.016;2023-01-23T05:46:44;97256.06;;;-0.78;100.00
706;BME280;21234;48.690;9.016;2023-01-23T05:49:11;97252.03;;;-0.82;100.00
706;BME280;21234;48.690;9.016;2023-01-23T05:51:39;97249.38;;;-0.82;100.00
706;BME280;21234;48.690;9.016;2023-01-23T05:54:05;97252.03;;;-0.82;100.00
706;BME280;21234;48.690;9.016;2023-01-23T05:56:32;97257.38;;;-0.82;100.00
706;BME280;21234;48.690;9.016;2023-01-23T05:58:59;97251.50;;;-0.85;100.00
706;BME280;21234;48.690;9.016;2023-01-23T06:01:25;97256.31;;;-0.89;100.00
706;BME280;21234;48.690;9.016;2023-01-23T06:03:52;97252.81;;;-0.89;100.00
706;BME280;21234;48.690;9.016;2023-01-23T06:06:19;97255.53;;;-0.81;100.00
706;BME280;21234;48.690;9.016;2023-01-23T06:08:47;97262.41;;;-0.79;100.00
706;BME280;21234;48.690;9.016;2023-01-23T06:11:13;97262.25;;;-0.77;100.00
706;BME280;21234;48.690;9.016;2023-01-23T06:13:40;97260.72;;;-0.80;100.00
706;BME280;21234;48.690;9.016;2023-01-23T06:16:07;97261.78;;;-0.73;100.00
706;BME280;21234;48.690;9.016;2023-01-23T06:18:34;97265.47;;;-0.74;100.00
706;BME280;21234;48.690;9.016;2023-01-23T06:21:00;97262.94;;;-0.75;100.00
706;BME280;21234;48.690;9.016;2023-01-23T06:23:27;97263.41;;;-0.80;100.00
706;BME280;21234;48.690;9.016;2023-01-23T06:26:00;97269.72;;;-0.81;100.00
706;BME280;21234;48.690;9.016;2023-01-23T06:28:27;97275.06;;;-0.81;100.00
706;BME280;21234;48.690;9.016;2023-01-23T06:30:53;97277.28;;;-0.76;100.00
706;BME280;21234;48.690;9.016;2023-01-23T06:33:20;97278.88;;;-0.83;100.00
706;BME280;21234;48.690;9.016;2023-01-23T06:35:47;97284.22;;;-0.83;100.00
706;BME280;21234;48.690;9.016;2023-01-23T06:38:13;97298.41;;;-0.83;100.00
706;BME280;21234;48.690;9.016;2023-01-23T06:40:40;97300.25;;;-0.83;100.00
706;BME280;21234;48.690;9.016;2023-01-23T06:43:08;97299.56;;;-0.85;100.00
706;BME280;21234;48.690;9.016;2023-01-23T06:45:35;97303.44;;;-0.80;100.00
706;BME280;21234;48.690;9.016;2023-01-23T06:48:01;97313.44;;;-0.82;100.00
706;BME280;21234;48.690;9.016;2023-01-23T06:50:28;97311.91;;;-0.84;100.00
706;BME280;21234;48.690;9.016;2023-01-23T06:52:55;97319.94;;;-0.84;100.00
706;BME280;21234;48.690;9.016;2023-01-23T06:55:22;97315.44;;;-0.84;100.00
706;BME280;21234;48.690;9.016;2023-01-23T06:57:48;97315.56;;;-0.85;100.00
706;BME280;21234;48.690;9.016;2023-01-23T07:00:17;97318.69;;;-0.90;100.00
706;BME280;21234;48.690;9.016;2023-01-23T07:02:44;97322.59;;;-0.84;100.00
706;BME280;21234;48.690;9.016;2023-01-23T07:05:11;97330.16;;;-0.80;100.00
706;BME280;21234;48.690;9.016;2023-01-23T07:07:37;97332.75;;;-0.88;100.00
706;BME280;21234;48.690;9.016;2023-01-23T07:10:05;97335.41;;;-0.88;100.00
706;BME280;21234;48.690;9.016;2023-01-23T07:12:32;97332.44;;;-0.85;100.00
706;BME280;21234;48.690;9.016;2023-01-23T07:14:59;97334.25;;;-0.85;100.00
706;BME280;21234;48.690;9.016;2023-01-23T07:17:27;97345.94;;;-0.86;100.00
706;BME280;21234;48.690;9.016;2023-01-23T07:19:53;97349.06;;;-0.91;100.00
706;BME280;21234;48.690;9.016;2023-01-23T07:22:21;97339.22;;;-0.90;100.00
706;BME280;21234;48.690;9.016;2023-01-23T07:24:48;97340.16;;;-0.99;100.00
706;BME280;21234;48.690;9.016;2023-01-23T07:27:15;97343.88;;;-0.92;100.00
706;BME280;21234;48.690;9.016;2023-01-23T07:29:43;97337.84;;;-0.94;100.00
706;BME280;21234;48.690;9.016;2023-01-23T07:32:10;97345.25;;;-0.88;100.00
706;BME280;21234;48.690;9.016;2023-01-23T07:34:38;97352.19;;;-0.95;100.00
706;BME280;21234;48.690;9.016;2023-01-23T07:37:04;97344.25;;;-0.87;100.00
706;BME280;21234;48.690;9.016;2023-01-23T07:39:31;97351.81;;;-0.83;100.00
706;BME280;21234;48.690;9.016;2023-01-23T07:41:58;97349.44;;;-0.86;100.00
706;BME280;21234;48.690;9.016;2023-01-23T07:44:25;97349.75;;;-0.89;100.00
706;BME280;21234;48.690;9.016;2023-01-23T07:46:52;97342.97;;;-0.83;100.00
706;BME280;21234;48.690;9.016;2023-01-23T07:49:19;97341.75;;;-0.89;100.00
706;BME280;21234;48.690;9.016;2023-01-23T07:51:47;97350.75;;;-0.90;100.00
706;BME280;21234;48.690;9.016;2023-01-23T07:54:14;97343.03;;;-0.93;100.00
706;BME280;21234;48.690;9.016;2023-01-23T07:56:40;97347.63;;;-0.85;100.00
706;BME280;21234;48.690;9.016;2023-01-23T07:59:07;97344.78;;;-0.84;100.00
706;BME280;21234;48.690;9.016;2023-01-23T08:01:34;97343.50;;;-0.80;100.00
706;BME280;21234;48.690;9.016;2023-01-23T08:04:00;97352.13;;;-0.86;100.00
706;BME280;21234;48.690;9.016;2023-01-23T08:06:27;97354.09;;;-0.88;100.00
706;BME280;21234;48.690;9.016;2023-01-23T08:08:55;97349.44;;;-0.86;100.00
706;BME280;21234;48.690;9.016;2023-01-23T08:11:22;97347.31;;;-0.82;100.00
706;BME280;21234;48.690;9.016;2023-01-23T08:13:51;97351.66;;;-0.81;100.00
706;BME280;21234;48.690;9.016;2023-01-23T08:16:18;97340.13;;;-0.82;100.00
706;BME280;21234;48.690;9.016;2023-01-23T08:18:44;97344.50;;;-0.81;100.00
706;BME280;21234;48.690;9.016;2023-01-23T08:21:11;97340.28;;;-0.83;100.00
706;BME280;21234;48.690;9.016;2023-01-23T08:23:38;97334.25;;;-0.85;100.00
706;BME280;21234;48.690;9.016;2023-01-23T08:26:10;97340.44;;;-0.85;100.00
706;BME280;21234;48.690;9.016;2023-01-23T08:28:38;97337.31;;;-0.80;100.00
706;BME280;21234;48.690;9.016;2023-01-23T08:31:06;97345.63;;;-0.83;100.00
706;BME280;21234;48.690;9.016;2023-01-23T08:33:33;97346.69;;;-0.76;100.00
706;BME280;21234;48.690;9.016;2023-01-23T08:36:00;97340.81;;;-0.80;100.00
706;BME280;21234;48.690;9.016;2023-01-23T08:38:27;97342.34;;;-0.77;100.00
706;BME280;21234;48.690;9.016;2023-01-23T08:40:57;97338.00;;;-0.78;100.00
706;BME280;21234;48.690;9.016;2023-01-23T08:43:25;97338.94;;;-0.70;100.00
706;BME280;21234;48.690;9.016;2023-01-23T08:45:53;97338.78;;;-0.68;100.00
706;BME280;21234;48.690;9.016;2023-01-23T08:48:21;97337.13;;;-0.61;100.00
706;BME280;21234;48.690;9.016;2023-01-23T08:50:48;97336.16;;;-0.60;100.00
706;BME280;21234;48.690;9.016;2023-01-23T08:53:15;97339.59;;;-0.68;100.00
706;BME280;21234;48.690;9.016;2023-01-23T08:55:42;97338.28;;;-0.63;100.00
706;BME280;21234;48.690;9.016;2023-01-23T08:58:09;97336.97;;;-0.59;100.00
706;BME280;21234;48.690;9.016;2023-01-23T09:00:39;97345.84;;;-0.59;100.00
706;BME280;21234;48.690;9.016;2023-01-23T09:03:06;97347.75;;;-0.51;100.00
706;BME280;21234;48.690;9.016;2023-01-23T09:05:33;97356.28;;;-0.48;100.00
706;BME280;21234;48.690;9.016;2023-01-23T09:08:00;97350.25;;;-0.50;100.00
706;BME280;21234;48.690;9.016;2023-01-23T09:10:27;97355.13;;;-0.45;100.00
706;BME280;21234;48.690;9.016;2023-01-23T09:12:54;97342.16;;;-0.40;100.00
706;BME280;21234;48.690;9.016;2023-01-23T09:15:21;97340.88;;;-0.54;98.78
706;BME280;21234;48.690;9.016;2023-01-23T09:17:49;97346.06;;;-0.52;98.33
706;BME280;21234;48.690;9.016;2023-01-23T09:20:16;97359.09;;;-0.49;99.12
706;BME280;21234;48.690;9.016;2023-01-23T09:22:43;97345.28;;;-0.45;99.46
706;BME280;21234;48.690;9.016;2023-01-23T09:25:10;97341.31;;;-0.41;99.30
706;BME280;21234;48.690;9.016;2023-01-23T09:27:37;97354.53;;;-0.39;98.39
706;BME280;21234;48.690;9.016;2023-01-23T09:30:04;97351.94;;;-0.49;98.09
706;BME280;21234;48.690;9.016;2023-01-23T09:32:31;97341.84;;;-0.37;97.62
706;BME280;21234;48.690;9.016;2023-01-23T09:34:59;97341.47;;;-0.42;97.05
706;BME280;21234;48.690;9.016;2023-01-23T09:37:28;97344.06;;;-0.32;96.92
706;BME280;21234;48.690;9.016;2023-01-23T09:39:54;97350.22;;;-0.32;95.77
706;BME280;21234;48.690;9.016;2023-01-23T09:42:28;97352.47;;;-0.45;95.11
706;BME280;21234;48.690;9.016;2023-01-23T09:45:01;97349.09;;;-0.47;95.54
706;BME280;21234;48.690;9.016;2023-01-23T09:47:34;97350.78;;;-0.64;94.80
706;BME280;21234;48.690;9.016;2023-01-23T09:50:07;97345.44;;;-0.64;95.45
706;BME280;21234;48.690;9.016;2023-01-23T09:52:40;97353.25;;;-0.71;95.35
706;BME280;21234;48.690;9.016;2023-01-23T09:55:12;97355.22;;;-0.55;95.31
706;BME280;21234;48.690;9.016;2023-01-23T09:57:47;97361.66;;;-0.65;95.42
706;BME280;21234;48.690;9.016;2023-01-23T10:00:22;97358.59;;;-0.71;94.28
706;BME280;21234;48.690;9.016;2023-01-23T10:02:50;97364.47;;;-0.67;94.34
706;BME280;21234;48.690;9.016;2023-01-23T10:05:23;97373.84;;;-0.63;93.01
706;BME280;21234;48.690;9.016;2023-01-23T10:07:58;97364.09;;;-0.72;93.23
706;BME280;21234;48.690;9.016;2023-01-23T10:10:41;97361.66;;;-0.65;92.86
706;BME280;21234;48.690;9.016;2023-01-23T10:13:14;97362.81;;;-0.68;93.23
706;BME280;21234;48.690;9.016;2023-01-23T10:15:56;97346.53;;;-0.57;93.62
706;BME280;21234;48.690;9.016;2023-01-23T10:18:32;97359.03;;;-0.40;92.87
706;BME280;21234;48.690;9.016;2023-01-23T10:21:14;97359.25;;;-0.33;92.85
706;BME280;21234;48.690;9.016;2023-01-23T10:23:55;97357.22;;;-0.31;91.90
706;BME280;21234;48.690;9.016;2023-01-23T10:26:29;97373.16;;;-0.47;92.13
706;BME280;21234;48.690;9.016;2023-01-23T10:29:01;97353.56;;;-0.30;93.00
706;BME280;21234;48.690;9.016;2023-01-23T10:31:34;97352.22;;;-0.08;93.10
706;BME280;21234;48.690;9.016;2023-01-23T10:34:10;97341.63;;;0.08;91.68
706;BME280;21234;48.690;9.016;2023-01-23T10:36:46;97352.00;;;-0.15;
706;BME280;21234;48.690;9.016;2023-01-23T10:39:24;97351.63;;;-0.20;90.73
706;BME280;21234;48.690;9.016;2023-01-23T10:41:51;97342.06;;;-0.05;90.87
706;BME280;21234;48.690;9.016;2023-01-23T10:44:19;97344.81;;;0.12;90.25
706;BME280;21234;48.690;9.016;2023-01-23T10:46:48;97344.75;;;0.04;88.85
706;BME280;21234;48.690;9.016;2023-01-23T10:49:30;97351.63;;;0.06;89.22
706;BME280;21234;48.690;9.016;2023-01-23T10:51:58;97343.75;;;0.05;89.35
706;BME280;21234;48.690;9.016;2023-01-23T10:54:26;97342.59;;;-0.01;89.20
706;BME280;21234;48.690;9.016;2023-01-23T10:56:55;97335.75;;;0.05;89.38
706;BME280;21234;48.690;9.016;2023-01-23T10:59:27;97340.16;;;-0.38;89.61
706;BME280;21234;48.690;9.016;2023-01-23T11:02:00;97334.69;;;-0.28;90.82
706;BME280;21234;48.690;9.016;2023-01-23T11:04:30;97331.78;;;-0.17;91.04
706;BME280;21234;48.690;9.016;2023-01-23T11:07:07;97328.59;;;-0.21;90.68
706;BME280;21234;48.690;9.016;2023-01-23T11:09:45;97324.28;;;-0.14;90.93
706;BME280;21234;48.690;9.016;2023-01-23T11:12:15;97326.97;;;-0.14;90.72
706;BME280;21234;48.690;9.016;2023-01-23T11:14:43;97332.00;;;-0.11;90.97
706;BME280;21234;48.690;9.016;2023-01-23T11:17:15;97329.31;;;-0.11;90.85
706;BME280;21234;48.690;9.016;2023-01-23T11:19:42;97330.00;;;-0.09;90.85
706;BME280;21234;48.690;9.016;2023-01-23T11:22:25;97322.38;;;0.05;91.29
706;BME280;21234;48.690;9.016;2023-01-23T11:24:53;97307.59;;;0.18;91.44
706;BME280;21234;48.690;9.016;2023-01-23T11:27:22;97298.09;;;0.24;91.22
706;BME280;21234;48.690;9.016;2023-01-23T11:30:29;97304.94;;;0.26;90.40
706;BME280;21234;48.690;9.016;2023-01-23T11:33:02;97303.06;;;0.19;90.83
706;BME280;21234;48.690;9.016;2023-01-23T11:35:44;97298.88;;;0.16;90.98
706;BME280;21234;48.690;9.016;2023-01-23T11:38:16;97303.72;;;0.13;90.81
706;BME280;21234;48.690;9.016;2023-01-23T11:40:43;97298.81;;;0.00;90.48
706;BME280;21234;48.690;9.016;2023-01-23T11:43:13;97308.31;;;-0.06;91.84
706;BME280;21234;48.690;9.016;2023-01-23T11:45:48;97304.97;;;0.00;92.42
706;BME280;21234;48.690;9.016;2023-01-23T11:48:32;97302.66;;;-0.03;92.48
706;BME280;21234;48.690;9.016;2023-01-23T11:51:06;97297.56;;;-0.14;92.33
706;BME280;21234;48.690;9.016;2023-01-23T11:53:43;97296.94;;;-0.08;92.30
706;BME280;21234;48.690;9.016;2023-01-23T11:56:42;97296.66;;;-0.22;93.14
706;BME280;21234;48.690;9.016;2023-01-23T11:59:34;97291.69;;;-0.17;92.81
706;BME280;21234;48.690;9.016;2023-01-23T12:05:35;97295.78;;;-0.31;93.99
706;BME280;21234;48.690;9.016;2023-01-23T12:08:17;97292.94;;;-0.29;94.20
706;BME280;21234;48.690;9.016;2023-01-23T12:10:53;97290.94;;;-0.36;94.01
706;BME280;21234;48.690;9.016;2023-01-23T12:13:41;97292.25;;;-0.31;94.11
706;BME280;21234;48.690;9.016;2023-01-23T12:16:16;97296.75;;;-0.32;94.22
706;BME280;21234;48.690;9.016;2023-01-23T12:18:59;97293.47;;;-0.26;94.61
706;BME280;21234;48.690;9.016;2023-01-23T12:21:35;97286.50;;;-0.19;94.93
706;BME280;21234;48.690;9.016;2023-01-23T12:24:13;97275.03;;;-0.11;94.96
706;BME280;21234;48.690;9.016;2023-01-23T12:26:56;97277.53;;;-0.10;94.24
706;BME280;21234;48.690;9.016;2023-01-23T12:29:38;97267.22;;;-0.05;93.95
706;BME280;21234;48.690;9.016;2023-01-23T12:32:29;97261.38;;;0.00;93.28
706;BME280;21234;48.690;9.016;2023-01-23T12:35:07;97256.41;;;0.13;93.90
706;BME280;21234;48.690;9.016;2023-01-23T12:37:50;97244.78;;;0.30;93.30
706;BME280;21234;48.690;9.016;2023-01-23T12:40:25;97244.28;;;0.27;92.42
706;BME280;21234;48.690;9.016;2023-01-23T12:42:59;97230.06;;;0.34;92.16
706;BME280;21234;48.690;9.016;2023-01-23T12:45:31;97244.63;;;0.40;91.92
706;BME280;21234;48.690;9.016;2023-01-23T12:48:03;97238.28;;;0.41;92.39
706;BME280;21234;48.690;9.016;2023-01-23T12:50:39;97236.81;;;0.55;91.77
706;BME280;21234;48.690;9.016;2023-01-23T12:53:11;97236.81;;;0.55;91.64
706;BME280;21234;48.690;9.016;2023-01-23T12:55:45;97235.97;;;0.46;91.55
706;BME280;21234;48.690;9.016;2023-01-23T12:58:18;97234.34;;;0.61;91.15
706;BME280;21234;48.690;9.016;2023-01-23T13:00:54;97224.94;;;0.65;90.81
706;BME280;21234;48.690;9.016;2023-01-23T13:03:50;97220.09;;;0.69;90.69
706;BME280;21234;48.690;9.016;2023-01-23T13:06:43;97231.31;;;0.64;90.30
706;BME280;21234;48.690;9.016;2023-01-23T13:09:21;97223.78;;;0.52;91.16
706;BME280;21234;48.690;9.016;2023-01-23T13:12:00;97223.78;;;0.60;91.28
706;BME280;21234;48.690;9.016;2023-01-23T13:14:39;97225.75;;;0.42;91.67
706;BME280;21234;48.690;9.016;2023-01-23T13:17:36;97220.88;;;0.29;92.39
706;BME280;21234;48.690;9.016;2023-01-23T13:20:22;97212.66;;;0.22;92.82
706;BME280;21234;48.690;9.016;2023-01-23T13:23:28;97218.19;;;0.21;93.37
706;BME280;21234;48.690;9.016;2023-01-23T13:26:24;97220.84;;;0.21;92.97
706;BME280;21234;48.690;9.016;2023-01-23T13:28:54;97226.88;;;0.23;93.17
706;BME280;21234;48.690;9.016;2023-01-23T13:31:32;97216.47;;;0.12;94.23
706;BME280;21234;48.690;9.016;2023-01-23T13:34:00;97225.31;;;0.12;94.60